CW3330 Weather Reports


time (UTC)temp
C
wind
direction
speed
KPH
gust
KPH
rain 1hr
cm
rain 24hr
cm
rain mn
cm
humidity
%
barometer
mb
20190425015503 13 267 1.6 12.9 0.00 0.05 0.00 80 1005.4
20190425015004 13 249 1.6 12.9 0.00 0.05 0.00 80 1005.4
20190425014503 13 219 9.7 16.1 0.00 0.05 0.00 79 1005.4
20190425014003 13 245 6.4 14.5 0.00 0.05 0.00 79 1005.3
20190425013503 13 215 6.4 12.9 0.00 0.05 0.00 78 1005.3
20190425013005 13 267 1.6 12.9 0.00 0.05 0.00 77 1005.3
20190425012504 14 243 4.8 14.5 0.00 0.05 0.00 76 1005.3
20190425012004 14 258 6.4 19.3 0.00 0.05 0.00 75 1005.3
20190425011503 14 259 11.3 25.7 0.00 0.05 0.00 74 1005.3
20190425011003 15 251 14.5 24.1 0.00 0.05 0.00 74 1005.5
20190425010504 14 252 17.7 25.7 0.00 0.05 0.00 73 1005.5
20190425010008 14 230 19.3 32.2 0.00 0.05 0.00 72 1004.9
20190425005503 14 201 9.7 16.1 0.00 0.05 0.00 73 1004.6
20190425005004 14 167 14.5 22.5 0.00 0.05 0.00 73 1004.6
20190425004503 14 177 8.0 14.5 0.00 0.05 0.00 73 1004.6
20190425004004 14 176 8.0 14.5 0.00 0.05 0.00 73 1004.1
20190425003503 14 180 6.4 12.9 0.00 0.05 0.00 74 1004.1
20190425003004 14 92 3.2 11.3 0.00 0.05 0.00 73 1004.1
20190425002503 14 143 3.2 14.5 0.00 0.05 0.00 73 1003.9
20190425002004 14 163 4.8 14.5 0.00 0.05 0.00 72 1003.9
20190425001504 15 208 6.4 12.9 0.00 0.05 0.00 71 1003.9
20190425001004 15 199 3.2 19.3 0.00 0.05 0.00 70 1003.9
20190425000504 15 161 9.7 19.3 0.00 0.05 0.00 71 1003.9
20190425000007 15 186 8.0 19.3 0.00 0.05 0.00 70 1003.8
20190424235504 15 184 4.8 14.5 0.00 0.05 0.00 69 1003.6
20190424235004 15 177 14.5 25.7 0.00 0.05 0.00 68 1003.6
20190424234504 15 177 12.9 16.1 0.00 0.05 0.00 69 1003.6
20190424234007 15 122 4.8 16.1 0.00 0.05 0.00 69 1002.6
20190424233503 15 94 6.4 19.3 0.00 0.05 0.00 69 1002.6
20190424233004 15 98 11.3 19.3 0.00 0.05 0.00 70 1002.6
20190424232503 15 84 3.2 16.1 0.00 0.05 0.00 69 1002.7
20190424232004 15 85 4.8 14.5 0.00 0.05 0.00 69 1002.7
20190424231504 15 83 8.0 14.5 0.00 0.05 0.00 69 1002.7
20190424231013 15 91 14.5 29.0 0.00 0.05 0.00 68 1002.7
20190424230506 15 96 11.3 16.1 0.00 0.05 0.00 69 1002.8
20190424230026 15 102 11.3 19.3 0.00 0.05 0.00 69 1003.0
20190424225503 15 88 12.9 16.1 0.00 0.05 0.05 69 1003.0
20190424225006 15 97 11.3 22.5 0.00 0.05 0.05 68 1003.0
20190424224503 15 102 9.7 14.5 0.00 0.05 0.05 69 1003.0
20190424224005 15 92 9.7 22.5 0.00 0.05 0.05 68 1003.2
20190424223504 15 94 4.8 12.9 0.00 0.05 0.05 69 1003.2
20190424223004 15 93 8.0 14.5 0.00 0.05 0.05 69 1003.2
20190424222504 15 88 9.7 14.5 0.00 0.05 0.05 70 1003.2
20190424222004 15 92 12.9 27.4 0.00 0.05 0.05 70 1003.2
20190424221504 15 76 8.0 16.1 0.00 0.05 0.05 71 1003.2
20190424221004 15 88 9.7 16.1 0.00 0.05 0.05 72 1003.5
20190424220504 15 93 8.0 14.5 0.00 0.05 0.05 72 1003.5
20190424220008 14 84 9.7 14.5 0.00 0.05 0.05 73 1003.5
20190424215503 14 88 8.0 16.1 0.00 0.05 0.05 73 1003.5
20190424215005 14 90 9.7 16.1 0.00 0.05 0.05 73 1003.5
20190424214504 14 83 11.3 19.3 0.00 0.05 0.05 73 1003.5
20190424214006 15 72 11.3 16.1 0.00 0.05 0.05 73 1003.6
20190424213504 15 94 11.3 16.1 0.00 0.05 0.05 73 1003.6
20190424213005 15 84 11.3 16.1 0.00 0.05 0.05 72 1003.6
20190424212504 15 90 9.7 16.1 0.00 0.05 0.05 72 1003.5
20190424212005 14 93 11.3 16.1 0.00 0.05 0.05 73 1003.5
20190424211504 14 86 9.7 16.1 0.00 0.05 0.05 74 1003.5
20190424211006 15 83 8.0 14.5 0.00 0.05 0.05 73 1003.7
20190424210506 15 88 8.0 12.9 0.00 0.05 0.05 73 1003.7
20190424210007 15 85 9.7 14.5 0.00 0.05 0.05 73 1003.8
20190424205504 15 70 4.8 12.9 0.00 0.05 0.05 73 1004.0
20190424205005 15 75 6.4 14.5 0.00 0.05 0.05 73 1004.0
20190424204504 15 83 4.8 12.9 0.00 0.05 0.05 73 1004.0
20190424204005 15 81 4.8 12.9 0.00 0.05 0.05 73 1004.2
20190424203504 15 76 6.4 14.5 0.00 0.05 0.05 73 1004.2
20190424203006 15 88 4.8 12.9 0.00 0.05 0.05 74 1004.2
20190424202504 15 88 4.8 11.3 0.00 0.05 0.05 74 1004.2
20190424202005 15 75 3.2 11.3 0.00 0.05 0.05 74 1004.2
20190424201504 15 85 4.8 14.5 0.00 0.05 0.05 74 1004.2
20190424201004 15 75 8.0 14.5 0.00 0.05 0.05 73 1004.1
20190424200504 15 96 8.0 14.5 0.00 0.05 0.05 73 1004.1
20190424200006 15 83 8.0 14.5 0.00 0.05 0.05 73 1004.1
20190424195505 15 93 9.7 14.5 0.00 0.05 0.05 72 1004.0
20190424195005 15 87 9.7 14.5 0.00 0.05 0.05 73 1004.0
20190424194502 15 94 8.0 14.5 0.00 0.05 0.05 73 1004.0
20190424194003 15 89 11.3 14.5 0.00 0.05 0.05 73 1004.0
20190424193502 15 86 9.7 14.5 0.00 0.05 0.05 73 1004.0
20190424193003 15 65 6.4 12.9 0.00 0.05 0.05 74 1004.0
20190424192502 15 74 6.4 14.5 0.00 0.05 0.05 73 1003.9
20190424192002 15 82 6.4 14.5 0.00 0.05 0.05 73 1003.9
20190424191502 15 54 6.4 14.5 0.00 0.05 0.05 73 1003.9
20190424191002 15 62 8.0 14.5 0.00 0.05 0.05 72 1003.9
20190424190503 16 68 4.8 14.5 0.00 0.05 0.05 72 1003.9
20190424190004 16 58 4.8 14.5 0.00 0.05 0.05 72 1003.9
20190424185502 16 60 4.8 12.9 0.00 0.05 0.05 72 1003.7
20190424185003 16 55 4.8 12.9 0.00 0.05 0.05 72 1003.7
20190424184503 16 58 3.2 12.9 0.00 0.05 0.05 71 1003.7
20190424184003 16 51 8.0 12.9 0.00 0.05 0.05 71 1003.7
20190424183502 16 61 6.4 12.9 0.00 0.05 0.05 70 1003.7
20190424183002 17 53 8.0 14.5 0.00 0.05 0.05 69 1003.7
20190424182501 17 71 8.0 16.1 0.00 0.05 0.05 68 1003.6
20190424182003 17 56 8.0 14.5 0.00 0.05 0.05 66 1003.6
20190424181502 18 65 11.3 14.5 0.00 0.05 0.05 65 1003.6
20190424181002 18 72 8.0 14.5 0.00 0.05 0.05 64 1003.6
20190424180502 18 51 4.8 12.9 0.00 0.05 0.05 65 1003.6
20190424180004 18 53 3.2 12.9 0.00 0.05 0.05 62 1003.5
20190424175503 19 76 6.4 14.5 0.00 0.05 0.05 61 1003.5
20190424175003 19 74 6.4 14.5 0.00 0.05 0.05 61 1003.5
20190424174503 19 41 9.7 19.3 0.00 0.05 0.05 59 1003.5
20190424174003 20 64 4.8 14.5 0.00 0.05 0.05 57 1003.3
20190424173502 20 77 9.7 16.1 0.00 0.05 0.05 56 1003.3
20190424173003 20 98 11.3 19.3 0.00 0.05 0.05 55 1003.3
20190424172503 20 94 9.7 24.1 0.00 0.05 0.05 55 1003.3
20190424172002 20 86 9.7 19.3 0.00 0.05 0.05 54 1003.3
20190424171502 20 80 9.7 19.3 0.00 0.05 0.05 53 1003.3
20190424171003 20 105 9.7 22.5 0.00 0.05 0.05 53 1003.3
20190424170502 20 107 8.0 19.3 0.00 0.05 0.05 53 1003.3
20190424170006 20 94 11.3 19.3 0.00 0.05 0.05 52 1003.3
20190424165503 20 95 11.3 22.5 0.00 0.05 0.05 53 1003.3
20190424165003 21 99 8.0 16.1 0.00 0.05 0.05 52 1003.3
20190424164503 21 85 11.3 22.5 0.00 0.05 0.05 51 1003.3
20190424164003 21 98 14.5 32.2 0.00 0.05 0.05 51 1003.2
20190424163502 21 90 14.5 32.2 0.00 0.05 0.05 51 1003.2
20190424163003 21 89 14.5 27.4 0.00 0.05 0.05 51 1003.2
20190424162503 21 94 9.7 29.0 0.00 0.05 0.05 52 1003.3
20190424162003 21 113 11.3 24.1 0.00 0.05 0.05 51 1003.3
20190424161503 21 88 9.7 16.1 0.00 0.05 0.05 50 1003.3
20190424161003 21 84 14.5 27.4 0.00 0.05 0.05 50 1003.4
20190424160506 21 76 11.3 27.4 0.00 0.05 0.05 51 1003.4
20190424160007 21 111 14.5 27.4 0.00 0.05 0.05 50 1003.4
20190424155503 21 87 11.3 16.1 0.00 0.05 0.05 52 1003.4
20190424155003 21 102 11.3 29.0 0.00 0.05 0.05 51 1003.4
20190424154503 21 104 11.3 24.1 0.00 0.05 0.05 52 1003.4
20190424154004 21 91 16.1 29.0 0.00 0.05 0.05 52 1003.5
20190424153503 21 84 14.5 32.2 0.00 0.05 0.05 52 1003.5
20190424153004 21 83 14.5 24.1 0.00 0.05 0.05 53 1003.5
20190424152505 21 84 14.5 29.0 0.00 0.05 0.05 52 1003.6
20190424152003 21 87 19.3 27.4 0.00 0.05 0.05 51 1003.6
20190424151503 22 102 9.7 25.7 0.00 0.05 0.05 52 1003.6
20190424151005 22 106 14.5 25.7 0.00 0.05 0.05 49 1003.8
20190424150503 22 87 16.1 24.1 0.00 0.05 0.05 48 1003.8
20190424150005 22 87 8.0 22.5 0.00 0.05 0.05 51 1003.8
20190424145502 22 98 14.5 25.7 0.00 0.05 0.05 48 1003.7
20190424145003 22 110 12.9 25.7 0.00 0.05 0.05 49 1003.7
20190424144503 22 90 14.5 27.4 0.00 0.05 0.05 50 1003.7
20190424144004 23 91 16.1 35.4 0.00 0.05 0.05 48 1003.8
20190424143503 23 98 9.7 14.5 0.00 0.05 0.05 49 1003.8
20190424143008 23 118 11.3 19.3 0.00 0.05 0.05 48 1003.8
20190424142504 23 97 9.7 22.5 0.00 0.05 0.05 49 1003.8
20190424142004 22 133 8.0 22.5 0.00 0.05 0.05 50 1003.8
20190424141503 22 93 12.9 16.1 0.00 0.05 0.05 49 1003.8
20190424141003 22 81 16.1 27.4 0.00 0.05 0.05 46 1004.1
20190424140503 23 170 8.0 14.5 0.00 0.05 0.05 48 1004.1
20190424140005 22 127 9.7 19.3 0.00 0.05 0.05 48 1004.1
20190424135503 22 168 6.4 22.5 0.00 0.05 0.05 50 1004.0
20190424135004 23 95 11.3 24.1 0.00 0.05 0.05 47 1004.0
20190424134503 23 107 14.5 24.1 0.00 0.05 0.05 47 1004.0
20190424134004 22 153 9.7 29.0 0.00 0.05 0.05 49 1004.0
20190424133503 22 86 12.9 16.1 0.00 0.05 0.05 48 1004.0
20190424133003 22 97 11.3 25.7 0.00 0.05 0.05 49 1004.0
20190424132503 22 133 8.0 22.5 0.00 0.05 0.05 51 1004.1
20190424132004 22 151 9.7 16.1 0.00 0.05 0.05 51 1004.1
20190424131503 22 100 9.7 16.1 0.00 0.05 0.05 50 1004.1
20190424131004 22 128 12.9 24.1 0.00 0.05 0.05 52 1004.1
20190424130504 21 121 8.0 14.5 0.00 0.05 0.05 52 1004.1
20190424130006 21 114 9.7 19.3 0.00 0.05 0.05 53 1004.2
20190424125503 21 80 16.1 22.5 0.00 0.05 0.05 51 1004.2
20190424125004 21 77 16.1 25.7 0.00 0.05 0.05 50 1004.2
20190424124504 21 95 11.3 19.3 0.00 0.05 0.05 53 1004.2
20190424124003 21 126 12.9 22.5 0.00 0.05 0.05 51 1004.1
20190424123504 21 121 6.4 27.4 0.00 0.05 0.05 52 1004.1
20190424123004 21 86 12.9 27.4 0.00 0.05 0.05 51 1004.1
20190424122504 21 106 9.7 24.1 0.00 0.05 0.05 54 1004.2
20190424122004 21 107 9.7 19.3 0.00 0.05 0.05 54 1004.2
20190424121503 20 110 8.0 14.5 0.00 0.05 0.05 55 1004.2
20190424121004 20 164 8.0 16.1 0.00 0.05 0.05 55 1004.1
20190424120503 20 163 11.3 22.5 0.00 0.05 0.05 54 1004.1
20190424120006 21 105 14.5 24.1 0.00 0.05 0.05 52 1004.1
20190424115503 20 137 8.0 19.3 0.00 0.05 0.05 54 1004.2
20190424115004 20 168 9.7 22.5 0.00 0.05 0.05 54 1004.2
20190424114504 20 168 9.7 24.1 0.00 0.05 0.05 56 1004.2
20190424114004 20 114 14.5 25.7 0.00 0.05 0.05 55 1004.1
20190424113504 20 115 14.5 19.3 0.00 0.05 0.05 56 1004.1
20190424113004 20 124 8.0 14.5 0.00 0.05 0.05 58 1004.1
20190424112503 20 168 11.3 24.1 0.00 0.05 0.05 58 1004.0
20190424112004 19 88 11.3 19.3 0.00 0.05 0.05 57 1004.0
20190424111503 19 142 12.9 22.5 0.00 0.05 0.05 58 1004.0
20190424111004 19 155 8.0 19.3 0.00 0.05 0.05 58 1004.0
20190424110504 18 140 9.7 16.1 0.00 0.05 0.05 59 1004.0
20190424110009 18 125 11.3 14.5 0.00 0.05 0.05 60 1004.0
20190424105503 18 131 11.3 19.3 0.00 0.05 0.05 60 1004.1
20190424105004 18 119 8.0 29.0 0.00 0.05 0.05 62 1004.1
20190424104509 18 102 14.5 25.7 0.00 0.05 0.05 61 1004.1
20190424104008 18 174 14.5 19.3 0.00 0.05 0.05 63 1004.1
20190424103503 17 121 9.7 19.3 0.00 0.05 0.05 64 1004.1
20190424103004 17 173 11.3 22.5 0.00 0.05 0.05 65 1004.1
20190424102503 17 128 11.3 24.1 0.00 0.05 0.05 65 1004.0
20190424102006 17 191 14.5 22.5 0.03 0.05 0.05 66 1004.0
20190424101504 17 183 9.7 24.1 0.03 0.05 0.05 69 1004.0
20190424101004 16 128 11.3 24.1 0.03 0.05 0.05 70 1003.9
20190424100504 16 114 9.7 14.5 0.03 0.05 0.05 71 1003.9
20190424100008 15 136 9.7 16.1 0.03 0.05 0.05 75 1004.0
20190424095503 15 136 9.7 19.3 0.03 0.05 0.05 76 1004.0
20190424095004 14 133 8.0 16.1 0.03 0.05 0.05 78 1004.0
20190424094504 13 182 9.7 16.1 0.03 0.05 0.05 81 1004.0
20190424094004 13 161 8.0 14.5 0.03 0.05 0.05 84 1004.1
20190424093504 13 126 6.4 14.5 0.03 0.05 0.05 85 1004.1
20190424093005 12 140 6.4 14.5 0.03 0.05 0.05 84 1004.1
20190424092504 12 161 4.8 14.5 0.03 0.05 0.05 84 1004.1
20190424092004 12 192 9.7 25.7 0.00 0.03 0.03 83 1004.1
20190424091004 12 161 11.3 25.7 0.00 0.03 0.03 81 1003.8
20190424090507 13 165 6.4 19.3 0.00 0.03 0.03 80 1003.8
20190424090010 13 131 8.0 32.2 0.00 0.03 0.03 78 1003.8
20190424085504 13 179 14.5 37.0 0.00 0.03 0.03 77 1004.1
20190424085004 13 179 14.5 35.4 0.00 0.03 0.03 75 1004.1
20190424084504 13 174 22.5 40.2 0.00 0.03 0.03 75 1004.1
20190424084005 13 193 14.5 25.7 0.00 0.03 0.03 75 1003.7
20190424083507 13 164 11.3 24.1 0.00 0.03 0.03 76 1003.7
20190424083004 13 193 11.3 22.5 0.00 0.03 0.03 74 1003.7
20190424082503 13 172 14.5 24.1 0.00 0.03 0.03 73 1003.6
20190424082004 13 179 12.9 24.1 0.00 0.03 0.03 74 1003.6
20190424081504 13 156 14.5 25.7 0.00 0.03 0.03 74 1003.6
20190424081004 13 178 11.3 24.1 0.00 0.03 0.03 74 1003.6
20190424080504 13 137 11.3 29.0 0.00 0.03 0.03 73 1003.6
20190424080008 13 157 19.3 29.0 0.00 0.03 0.03 73 1003.5
20190424075504 13 153 11.3 24.1 0.00 0.03 0.03 74 1003.5
20190424075005 13 150 14.5 24.1 0.00 0.03 0.03 73 1003.5
20190424074505 13 149 12.9 24.1 0.00 0.03 0.03 74 1003.5
20190424074005 13 144 11.3 24.1 0.00 0.03 0.03 74 1003.4
20190424073504 12 184 14.5 24.1 0.00 0.03 0.03 75 1003.4
20190424073005 12 156 8.0 22.5 0.00 0.03 0.03 76 1003.4
20190424072503 12 179 11.3 27.4 0.00 0.03 0.03 77 1003.5
20190424072004 12 151 8.0 19.3 0.00 0.03 0.03 77 1003.5
20190424071505 12 139 4.8 14.5 0.00 0.03 0.03 77 1003.5
20190424071004 12 134 12.9 22.5 0.00 0.03 0.03 76 1003.4
20190424070503 12 94 12.9 27.4 0.00 0.03 0.03 75 1003.4
20190424070007 12 151 9.7 14.5 0.00 0.03 0.03 75 1003.4
20190424065504 12 141 11.3 25.7 0.00 0.03 0.03 76 1003.3
20190424065005 12 139 9.7 25.7 0.00 0.03 0.03 75 1003.3
20190424064504 12 113 11.3 22.5 0.00 0.03 0.03 76 1003.3
20190424064005 12 113 11.3 24.1 0.00 0.03 0.03 76 1003.3
20190424063505 12 131 8.0 29.0 0.00 0.03 0.03 75 1003.3
20190424063004 12 126 11.3 22.5 0.00 0.03 0.03 75 1003.3
20190424062504 12 136 9.7 19.3 0.00 0.03 0.03 76 1003.2
20190424062005 12 115 6.4 16.1 0.00 0.03 0.03 76 1003.2
20190424061504 12 163 11.3 19.3 0.00 0.03 0.03 76 1003.2
20190424061108 11 109 4.8 16.1 0.03 0.03 0.03 76 1003.2
20190424060504 11 106 8.0 19.3 0.03 0.03 0.03 77 1003.2
20190424060008 11 119 9.7 16.1 0.03 0.03 0.03 77 1003.2
20190424055504 11 148 3.2 19.3 0.03 0.03 0.03 77 1003.1
20190424055004 11 96 8.0 14.5 0.03 0.03 0.03 78 1003.1
20190424054503 11 97 9.7 14.5 0.03 0.03 0.03 78 1003.1
20190424054004 11 89 9.7 24.1 0.03 0.03 0.03 79 1003.1
20190424053504 11 90 9.7 14.5 0.03 0.03 0.03 81 1003.1
20190424053004 11 103 9.7 19.3 0.03 0.03 0.03 81 1003.1
20190424052504 11 101 9.7 19.3 0.03 0.03 0.03 81 1003.0
20190424052004 11 86 8.0 24.1 0.03 0.03 0.03 81 1003.0
20190424051503 11 86 11.3 16.1 0.03 0.03 0.03 81 1003.0
20190424051003 11 92 8.0 14.5 0.00 0.00 0.00 80 1003.0
20190424050504 11 78 9.7 19.3 0.00 0.00 0.00 78 1003.0
20190424050006 11 87 12.9 19.3 0.00 0.00 0.00 76 1003.0
20190424045503 11 125 8.0 19.3 0.00 0.00 0.00 74 1003.0
20190424045003 11 109 6.4 14.5 0.00 0.00 0.00 74 1003.0
20190424044503 11 114 4.8 16.1 0.00 0.00 0.00 74 1003.0
20190424044004 11 105 8.0 22.5 0.00 0.00 0.00 74 1002.9
20190424043504 11 95 9.7 22.5 0.00 0.00 0.00 75 1002.9
20190424043003 11 102 9.7 24.1 0.00 0.00 0.00 76 1002.9
20190424042503 11 101 8.0 14.5 0.00 0.00 0.00 77 1002.9
20190424042004 11 93 8.0 14.5 0.00 0.00 0.00 77 1002.9
20190424041503 11 124 9.7 22.5 0.00 0.00 0.00 77 1002.9
20190424041005 11 95 11.3 16.1 0.00 0.00 0.00 77 1003.0
20190424040510 11 89 11.3 19.3 0.00 0.00 0.00 77 1003.0
20190424040006 11 82 11.3 14.5 0.00 0.00 0.00 78 1003.0
20190424035503 11 97 9.7 19.3 0.00 0.00 0.00 78 1003.0
20190424035004 11 91 11.3 25.7 0.00 0.00 0.00 78 1003.0
20190424034504 11 86 11.3 14.5 0.00 0.00 0.00 78 1003.0
20190424034005 11 99 9.7 16.1 0.00 0.00 0.00 78 1002.9
20190424033504 11 110 6.4 14.5 0.00 0.00 0.00 79 1002.9
20190424033005 11 91 11.3 16.1 0.00 0.00 0.00 78 1002.9
20190424032504 11 81 12.9 16.1 0.00 0.00 0.00 78 1002.9
20190424032004 11 84 11.3 24.1 0.00 0.00 0.00 79 1002.9
20190424031504 11 91 9.7 19.3 0.00 0.00 0.00 79 1002.9
20190424031005 11 83 9.7 16.1 0.00 0.00 0.00 80 1003.0
20190424030504 10 81 9.7 22.5 0.00 0.00 0.00 80 1003.0
20190424030007 11 81 14.5 19.3 0.00 0.00 0.00 80 1003.0
20190424025503 10 89 12.9 22.5 0.00 0.00 0.00 80 1003.1
20190424025004 10 83 11.3 16.1 0.00 0.00 0.00 80 1003.1
20190424024504 10 73 8.0 14.5 0.00 0.00 0.00 81 1003.1
20190424024004 10 89 9.7 14.5 0.00 0.00 0.00 81 1003.2
20190424023504 10 89 12.9 19.3 0.00 0.00 0.00 81 1003.2
20190424023004 10 85 9.7 22.5 0.00 0.00 0.00 81 1003.2
20190424022503 10 68 11.3 22.5 0.00 0.00 0.00 81 1003.2
20190424022003 10 80 9.7 16.1 0.00 0.00 0.00 81 1003.2
20190424021503 10 84 6.4 16.1 0.00 0.00 0.00 81 1003.2
20190424021004 10 69 8.0 14.5 0.00 0.00 0.00 81 1003.3
20190424020503 10 79 8.0 16.1 0.00 0.00 0.00 81 1003.3
20190424020012 10 68 8.0 14.5 0.00 0.00 0.00 81 1003.3